createdAt,value
2017-05-31T00:02:22.341Z,88.90
2017-05-31T00:04:49.879Z,88.40
2017-05-31T00:07:17.412Z,88.30
2017-05-31T00:09:45.012Z,88.10
2017-05-31T00:12:12.547Z,86.50
2017-05-31T00:14:40.096Z,85.50
2017-05-31T00:17:07.664Z,85.60
2017-05-31T00:19:35.203Z,84.80
2017-05-31T00:22:02.744Z,85.60
2017-05-31T00:24:30.307Z,85.90
2017-05-31T00:26:57.852Z,85.80
2017-05-31T00:29:25.387Z,86.20
2017-05-31T00:31:52.957Z,85.80
2017-05-31T00:34:20.499Z,85.90
2017-05-31T00:36:48.040Z,86.30
2017-05-31T00:39:15.612Z,86.70
2017-05-31T00:41:43.172Z,87.10
2017-05-31T00:44:10.710Z,87.00
2017-05-31T00:46:38.279Z,86.20
2017-05-31T00:49:05.823Z,85.90
2017-05-31T00:51:33.368Z,85.90
2017-05-31T00:54:00.932Z,86.40
2017-05-31T00:56:28.476Z,86.80
2017-05-31T00:58:56.020Z,86.60
2017-05-31T01:01:23.594Z,87.00
2017-05-31T01:03:51.136Z,86.30
2017-05-31T01:06:18.699Z,86.60
2017-05-31T01:08:46.268Z,86.40
2017-05-31T01:11:14.212Z,87.30
2017-05-31T01:13:41.771Z,87.20
2017-05-31T01:16:09.331Z,86.80
2017-05-31T01:18:36.866Z,87.00
2017-05-31T01:21:04.420Z,87.40
2017-05-31T01:23:31.978Z,87.20
2017-05-31T01:25:59.538Z,87.20
2017-05-31T01:28:27.067Z,87.10
2017-05-31T01:30:54.627Z,87.50
2017-05-31T01:33:22.175Z,87.70
2017-05-31T01:35:49.728Z,87.20
2017-05-31T01:38:17.292Z,87.50
2017-05-31T01:40:44.831Z,87.40
2017-05-31T01:43:12.379Z,87.80
2017-05-31T01:45:39.946Z,87.10
2017-05-31T01:48:07.491Z,87.20
2017-05-31T01:50:35.035Z,87.40
2017-05-31T01:53:02.599Z,88.10
2017-05-31T01:55:30.138Z,88.20
2017-05-31T01:57:57.676Z,87.60
2017-05-31T02:00:25.248Z,88.30
2017-05-31T02:02:52.791Z,89.10
2017-05-31T02:05:20.332Z,89.20
2017-05-31T02:07:47.890Z,89.50
2017-05-31T02:10:15.441Z,89.40
2017-05-31T02:12:42.984Z,89.80
2017-05-31T02:15:10.560Z,89.60
2017-05-31T02:17:38.108Z,88.20
2017-05-31T02:20:05.652Z,87.70
2017-05-31T02:22:33.220Z,88.30
2017-05-31T02:25:00.759Z,88.30
2017-05-31T02:27:28.295Z,88.70
2017-05-31T02:29:56.260Z,88.70
2017-05-31T02:32:23.795Z,89.10
2017-05-31T02:34:51.339Z,88.50
2017-05-31T02:37:18.908Z,88.40
2017-05-31T02:39:46.454Z,88.60
2017-05-31T02:42:14.000Z,89.10
2017-05-31T02:44:41.574Z,89.60
2017-05-31T02:47:09.116Z,90.10
2017-05-31T02:49:36.655Z,90.50
2017-05-31T02:52:04.924Z,90.50
2017-05-31T02:54:32.470Z,89.30
2017-05-31T02:57:00.015Z,90.10
2017-05-31T02:59:27.580Z,90.50
2017-05-31T03:01:55.123Z,90.40
2017-05-31T03:04:22.673Z,89.20
2017-05-31T03:06:50.299Z,89.40
2017-05-31T03:09:17.800Z,90.30
2017-05-31T03:11:45.335Z,90.90
2017-05-31T03:14:12.899Z,90.90
2017-05-31T03:16:40.443Z,91.10
2017-05-31T03:19:07.992Z,91.40
2017-05-31T03:21:35.561Z,91.40
2017-05-31T03:24:03.107Z,91.40
2017-05-31T03:26:30.651Z,91.70
2017-05-31T03:28:58.215Z,91.60
2017-05-31T03:31:25.760Z,91.70
2017-05-31T03:33:53.309Z,91.70
2017-05-31T03:36:20.885Z,90.80
2017-05-31T03:38:48.433Z,91.20
2017-05-31T03:41:15.975Z,90.80
2017-05-31T03:43:43.545Z,91.10
2017-05-31T03:46:11.088Z,91.00
2017-05-31T03:48:38.636Z,90.70
2017-05-31T03:51:06.204Z,90.60
2017-05-31T03:53:33.753Z,90.40
2017-05-31T03:56:01.309Z,89.70
2017-05-31T03:58:28.880Z,89.70
2017-05-31T04:00:56.428Z,89.40
2017-05-31T04:03:23.981Z,89.50
2017-05-31T04:05:51.552Z,88.80
2017-05-31T04:08:19.092Z,88.90
2017-05-31T04:10:46.635Z,89.50
2017-05-31T04:13:14.207Z,88.70
2017-05-31T04:15:41.756Z,89.40
2017-05-31T04:18:09.291Z,88.40
2017-05-31T04:20:36.857Z,88.40
2017-05-31T04:23:04.414Z,89.10
2017-05-31T04:25:31.944Z,88.30
2017-05-31T04:27:59.512Z,88.70
2017-05-31T04:30:27.082Z,88.80
2017-05-31T04:32:54.616Z,88.30
2017-05-31T04:35:22.184Z,88.70
2017-05-31T04:37:49.719Z,88.00
2017-05-31T04:40:17.267Z,87.30
2017-05-31T04:42:44.836Z,87.90
2017-05-31T04:45:12.384Z,88.00
2017-05-31T04:47:39.924Z,87.40
2017-05-31T04:50:07.495Z,88.60
2017-05-31T04:52:35.036Z,87.50
2017-05-31T04:55:02.597Z,87.70
2017-05-31T04:57:30.152Z,86.30
2017-05-31T04:59:57.691Z,85.80
2017-05-31T05:02:25.231Z,85.80
2017-05-31T05:04:53.174Z,86.90
2017-05-31T05:07:20.707Z,86.20
2017-05-31T05:09:48.257Z,86.20
2017-05-31T05:12:15.828Z,86.10
2017-05-31T05:14:43.368Z,85.90
2017-05-31T05:17:10.936Z,87.40
2017-05-31T05:19:38.504Z,85.80
2017-05-31T05:22:06.049Z,85.50
2017-05-31T05:24:33.588Z,85.40
2017-05-31T05:27:01.157Z,84.90
2017-05-31T05:29:28.696Z,84.80
2017-05-31T05:31:56.245Z,84.40
2017-05-31T05:34:23.812Z,84.50
2017-05-31T05:36:51.358Z,84.60
2017-05-31T05:39:18.905Z,85.80
2017-05-31T05:41:46.467Z,86.00
2017-05-31T05:44:14.016Z,84.50
2017-05-31T05:46:41.561Z,84.30
2017-05-31T05:49:09.136Z,86.00
2017-05-31T05:51:36.685Z,85.20
2017-05-31T05:54:04.233Z,82.40
2017-05-31T05:56:31.801Z,82.40
2017-05-31T05:58:59.361Z,82.70
2017-05-31T06:01:26.912Z,83.20
2017-05-31T06:03:54.475Z,83.40
2017-05-31T06:06:21.975Z,82.20
2017-05-31T06:08:49.556Z,82.10
2017-05-31T06:11:17.129Z,82.60
2017-05-31T06:13:44.672Z,82.20
2017-05-31T06:16:12.215Z,81.30
2017-05-31T06:22:18.513Z,80.90
2017-05-31T06:26:49.677Z,81.40
2017-05-31T06:29:17.255Z,80.00
2017-05-31T06:31:44.813Z,81.00
2017-05-31T06:34:12.376Z,80.30
2017-05-31T06:36:39.988Z,80.60
2017-05-31T06:39:07.544Z,82.00
2017-05-31T06:41:35.116Z,79.30
2017-05-31T06:44:02.701Z,79.20
2017-05-31T06:46:30.251Z,78.20
2017-05-31T06:48:57.807Z,77.90
2017-05-31T06:51:25.384Z,76.80
2017-05-31T06:53:52.959Z,77.20
2017-05-31T06:56:20.523Z,77.10
2017-05-31T06:58:48.100Z,77.20
2017-05-31T07:01:15.665Z,75.40
2017-05-31T07:03:43.220Z,76.50
2017-05-31T07:06:10.796Z,76.50
2017-05-31T07:08:38.351Z,76.80
2017-05-31T07:11:05.908Z,76.70
2017-05-31T07:13:33.487Z,76.00
2017-05-31T07:16:01.489Z,75.40
2017-05-31T07:18:29.039Z,75.40
2017-05-31T07:20:56.595Z,77.50
2017-05-31T07:23:24.187Z,75.00
2017-05-31T07:25:51.744Z,75.00
2017-05-31T07:28:19.304Z,75.40
2017-05-31T07:30:46.880Z,75.30
2017-05-31T07:33:14.465Z,73.60
2017-05-31T07:35:42.036Z,73.60
2017-05-31T07:38:09.644Z,73.10
2017-05-31T07:40:37.215Z,74.10
2017-05-31T07:43:04.796Z,75.70
2017-05-31T07:45:32.372Z,77.40
2017-05-31T07:47:59.944Z,77.40
2017-05-31T07:50:27.554Z,75.50
2017-05-31T07:52:55.128Z,74.80
2017-05-31T07:55:23.133Z,72.50
2017-05-31T07:57:50.699Z,73.10
2017-05-31T08:00:18.248Z,76.00
2017-05-31T08:02:45.832Z,74.60
2017-05-31T08:05:13.788Z,73.20
2017-05-31T08:07:41.364Z,73.20
2017-05-31T08:10:08.957Z,72.70
2017-05-31T08:12:36.468Z,71.00
2017-05-31T08:15:04.068Z,72.20
2017-05-31T08:17:31.652Z,73.20
2017-05-31T08:19:59.208Z,71.40
2017-05-31T08:22:26.768Z,71.60
2017-05-31T08:24:54.356Z,71.40
2017-05-31T08:27:21.932Z,72.50
2017-05-31T08:29:49.496Z,70.50
2017-05-31T08:32:17.075Z,71.20
2017-05-31T08:34:44.631Z,71.60
2017-05-31T08:37:12.188Z,70.80
2017-05-31T08:39:39.778Z,71.60
2017-05-31T08:42:07.349Z,71.60
2017-05-31T08:44:34.903Z,70.90
2017-05-31T08:47:02.484Z,70.70
2017-05-31T08:49:30.061Z,70.70
2017-05-31T08:51:57.645Z,70.90
2017-05-31T08:54:25.204Z,70.10
2017-05-31T08:56:52.759Z,71.60
2017-05-31T08:59:20.339Z,71.50
2017-05-31T09:01:47.912Z,71.70
2017-05-31T09:04:15.604Z,70.60
2017-05-31T09:06:43.212Z,70.40
2017-05-31T09:09:10.769Z,69.80
2017-05-31T09:11:38.324Z,69.20
2017-05-31T09:14:05.903Z,68.60
2017-05-31T09:16:33.464Z,68.50
2017-05-31T09:19:01.029Z,69.00
2017-05-31T09:21:28.612Z,69.60
2017-05-31T09:23:56.168Z,69.70
2017-05-31T09:26:24.124Z,69.10
2017-05-31T09:28:51.716Z,69.10
2017-05-31T09:31:19.277Z,70.40
2017-05-31T09:33:46.831Z,70.90
2017-05-31T09:36:14.819Z,68.90
2017-05-31T09:38:42.392Z,68.90
2017-05-31T09:41:09.966Z,68.30
2017-05-31T09:43:37.540Z,68.40
2017-05-31T09:46:05.101Z,67.70
2017-05-31T09:48:32.659Z,67.80
2017-05-31T09:51:00.249Z,67.20
2017-05-31T09:53:27.816Z,66.80
2017-05-31T09:55:55.377Z,68.10
2017-05-31T09:58:22.963Z,67.10
2017-05-31T10:00:50.512Z,68.00
2017-05-31T10:03:18.067Z,67.90
2017-05-31T10:05:46.054Z,65.50
2017-05-31T10:08:13.607Z,65.60
2017-05-31T10:10:41.169Z,66.20
2017-05-31T10:13:08.748Z,68.40
2017-05-31T10:15:36.304Z,67.20
2017-05-31T10:18:03.859Z,66.90
2017-05-31T10:20:31.453Z,66.40
2017-05-31T10:22:59.004Z,65.80
2017-05-31T10:25:26.564Z,65.90
2017-05-31T10:27:54.143Z,66.50
2017-05-31T10:30:21.705Z,65.70
2017-05-31T10:32:49.257Z,65.50
2017-05-31T10:35:16.840Z,67.70
2017-05-31T10:37:44.393Z,65.30
2017-05-31T10:40:11.946Z,64.60
2017-05-31T10:42:39.531Z,66.40
2017-05-31T10:45:07.088Z,65.00
2017-05-31T10:47:34.648Z,65.60
2017-05-31T10:50:02.241Z,66.80
2017-05-31T10:52:30.196Z,64.10
2017-05-31T10:54:57.752Z,64.10
2017-05-31T10:57:25.409Z,65.30
2017-05-31T10:59:52.964Z,63.70
2017-05-31T11:02:20.515Z,65.30
2017-05-31T11:04:48.097Z,64.60
2017-05-31T11:07:15.659Z,64.90
2017-05-31T11:09:43.211Z,64.90
2017-05-31T11:12:10.801Z,64.30
2017-05-31T11:14:38.369Z,63.90
2017-05-31T11:17:05.928Z,65.40
2017-05-31T11:19:33.913Z,63.60
2017-05-31T11:22:01.469Z,63.60
2017-05-31T11:24:29.023Z,64.20
2017-05-31T11:26:56.680Z,61.00
2017-05-31T11:29:24.631Z,63.40
2017-05-31T11:31:52.184Z,63.40
2017-05-31T11:34:19.777Z,63.10
2017-05-31T11:36:47.342Z,65.10
2017-05-31T11:39:14.922Z,65.70
2017-05-31T11:41:42.519Z,65.40
2017-05-31T11:44:10.076Z,64.90
2017-05-31T11:46:37.640Z,65.20
2017-05-31T11:49:05.261Z,66.20
2017-05-31T11:51:32.797Z,64.60
2017-05-31T11:54:00.385Z,64.30
2017-05-31T11:56:27.960Z,64.20
2017-05-31T11:58:55.516Z,63.70
2017-05-31T12:01:23.099Z,63.30
2017-05-31T12:03:50.716Z,63.80
2017-05-31T12:06:18.271Z,64.20
2017-05-31T12:08:45.860Z,61.90
2017-05-31T12:11:13.433Z,63.50
2017-05-31T12:13:40.989Z,61.70
2017-05-31T12:16:08.567Z,63.90
2017-05-31T12:18:36.123Z,62.80
2017-05-31T12:21:03.679Z,62.70
2017-05-31T12:27:07.244Z,61.60
2017-05-31T12:29:34.793Z,62.40
2017-05-31T12:32:02.335Z,61.90
2017-05-31T12:34:29.902Z,64.10
2017-05-31T12:36:57.446Z,60.90
2017-05-31T12:39:24.984Z,60.40
2017-05-31T12:41:52.564Z,61.80
2017-05-31T12:44:20.109Z,59.20
2017-05-31T12:46:47.656Z,59.60
2017-05-31T12:49:15.620Z,59.80
2017-05-31T12:51:43.168Z,59.80
2017-05-31T12:54:10.703Z,60.10
2017-05-31T12:56:38.272Z,61.10
2017-05-31T12:59:05.813Z,59.40
2017-05-31T13:01:33.352Z,58.00
2017-05-31T13:04:00.925Z,57.80
2017-05-31T13:06:28.460Z,58.00
2017-05-31T13:08:56.004Z,59.20
2017-05-31T13:11:23.975Z,59.00
2017-05-31T13:13:51.517Z,59.00
2017-05-31T13:16:19.056Z,59.00
2017-05-31T13:18:46.628Z,58.40
2017-05-31T13:21:14.168Z,58.60
2017-05-31T13:23:41.703Z,58.20
2017-05-31T13:26:09.625Z,57.80
2017-05-31T13:28:37.176Z,59.40
2017-05-31T13:31:04.723Z,57.70
2017-05-31T13:33:32.283Z,58.80
2017-05-31T13:35:59.829Z,58.50
2017-05-31T13:38:27.372Z,58.80
2017-05-31T13:40:54.936Z,58.10
2017-05-31T13:43:22.576Z,58.60
2017-05-31T13:45:50.116Z,58.00
2017-05-31T13:48:17.671Z,57.90
2017-05-31T13:50:45.213Z,58.00
2017-05-31T13:53:12.753Z,57.80
2017-05-31T13:55:40.311Z,57.50
2017-05-31T13:58:07.848Z,57.60
2017-05-31T14:00:35.391Z,57.70
2017-05-31T14:03:03.348Z,56.80
2017-05-31T14:05:30.901Z,56.80
2017-05-31T14:07:58.440Z,58.00
2017-05-31T14:10:26.002Z,56.70
2017-05-31T14:12:53.548Z,56.90
2017-05-31T14:15:21.083Z,57.70
2017-05-31T14:17:48.652Z,58.30
2017-05-31T14:20:16.200Z,58.60
2017-05-31T14:22:44.140Z,58.00
2017-05-31T14:25:11.714Z,58.10
2017-05-31T14:27:39.249Z,56.70
2017-05-31T14:30:06.789Z,57.00
2017-05-31T14:32:34.352Z,57.40
2017-05-31T14:35:01.885Z,56.20
2017-05-31T14:37:29.428Z,56.40
2017-05-31T14:39:56.991Z,56.50
2017-05-31T14:42:24.611Z,57.00
2017-05-31T14:44:52.146Z,58.20
2017-05-31T14:47:19.728Z,55.80
2017-05-31T14:49:47.256Z,56.20
2017-05-31T14:52:14.791Z,58.50
2017-05-31T14:54:42.760Z,55.90
2017-05-31T14:57:10.692Z,55.60
2017-05-31T14:59:38.236Z,55.60
2017-05-31T15:02:05.804Z,56.30
2017-05-31T15:04:33.332Z,56.50
2017-05-31T15:07:00.877Z,56.50
2017-05-31T15:09:28.837Z,56.80
2017-05-31T15:11:56.380Z,56.80
2017-05-31T15:14:24.401Z,54.70
2017-05-31T15:16:51.940Z,56.60
2017-05-31T15:19:19.872Z,57.20
2017-05-31T15:21:47.432Z,57.20
2017-05-31T15:24:14.964Z,55.70
2017-05-31T15:26:42.497Z,57.30
2017-05-31T15:29:10.447Z,55.70
2017-05-31T15:31:37.946Z,55.70
2017-05-31T15:34:05.516Z,55.40
2017-05-31T15:36:33.075Z,55.50
2017-05-31T15:39:00.613Z,53.70
2017-05-31T15:41:28.156Z,55.10
2017-05-31T15:43:56.115Z,55.00
2017-05-31T15:46:23.663Z,55.00
2017-05-31T15:48:51.219Z,52.60
2017-05-31T15:51:18.791Z,51.10
2017-05-31T15:53:46.335Z,52.30
2017-05-31T15:56:13.877Z,53.00
2017-05-31T15:58:41.436Z,52.10
2017-05-31T16:01:08.981Z,54.00
2017-05-31T16:03:36.520Z,53.10
2017-05-31T16:06:04.482Z,51.30
2017-05-31T16:08:32.020Z,51.30
2017-05-31T16:10:59.560Z,52.40
2017-05-31T16:13:27.121Z,52.90
2017-05-31T16:15:54.651Z,51.70
2017-05-31T16:18:22.196Z,51.00
2017-05-31T16:20:50.156Z,52.40
2017-05-31T16:23:18.090Z,53.60
2017-05-31T16:25:45.633Z,53.60
2017-05-31T16:28:13.202Z,52.20
2017-05-31T16:30:40.748Z,51.30
2017-05-31T16:33:08.282Z,50.10
2017-05-31T16:35:35.840Z,50.10
2017-05-31T16:38:03.776Z,47.10
2017-05-31T16:40:31.318Z,47.10
2017-05-31T16:42:58.880Z,49.30
2017-05-31T16:45:26.416Z,50.30
2017-05-31T16:47:53.952Z,49.50
2017-05-31T16:50:21.520Z,50.80
2017-05-31T16:52:49.457Z,48.10
2017-05-31T16:55:16.988Z,48.10
2017-05-31T16:57:44.560Z,46.50
2017-05-31T17:00:12.093Z,49.00
2017-05-31T17:02:39.634Z,49.20
2017-05-31T17:05:07.592Z,49.90
2017-05-31T17:07:35.137Z,49.90
2017-05-31T17:10:02.684Z,50.30
2017-05-31T17:12:30.248Z,51.60
2017-05-31T17:14:57.793Z,51.70
2017-05-31T17:17:25.338Z,52.70
2017-05-31T17:19:52.914Z,51.90
2017-05-31T17:22:20.457Z,52.70
2017-05-31T17:24:48.028Z,52.50
2017-05-31T17:27:15.588Z,53.20
2017-05-31T17:29:43.181Z,54.10
2017-05-31T17:32:10.749Z,52.80
2017-05-31T17:34:38.295Z,53.50
2017-05-31T17:37:05.868Z,53.80
2017-05-31T17:39:33.480Z,51.70
2017-05-31T17:42:01.081Z,52.30
2017-05-31T17:44:28.768Z,51.30
2017-05-31T17:46:56.990Z,52.20
2017-05-31T17:49:24.714Z,52.20
2017-05-31T17:51:52.716Z,53.50
2017-05-31T17:54:20.421Z,53.50
2017-05-31T17:56:48.335Z,54.40
2017-05-31T17:59:16.191Z,54.40
2017-05-31T18:01:43.949Z,54.00
2017-05-31T18:04:12.391Z,53.40
2017-05-31T18:06:40.315Z,53.40
2017-05-31T18:09:08.539Z,54.10
2017-05-31T18:11:37.099Z,55.00
2017-05-31T18:14:05.920Z,55.00
2017-05-31T18:16:34.159Z,55.20
2017-05-31T18:19:02.260Z,55.20
2017-05-31T18:21:30.886Z,55.30
2017-05-31T18:23:59.401Z,55.50
2017-05-31T18:26:28.027Z,55.60
2017-05-31T18:28:56.703Z,56.20
2017-05-31T18:31:25.399Z,56.30
2017-05-31T18:33:53.969Z,56.40
2017-05-31T18:36:22.640Z,57.30
2017-05-31T18:38:51.165Z,57.30
2017-05-31T18:41:19.698Z,57.70
2017-05-31T18:43:48.750Z,61.30
2017-05-31T18:46:17.318Z,61.30
2017-05-31T18:48:45.909Z,63.30
2017-05-31T18:51:14.599Z,64.40
2017-05-31T18:53:43.131Z,65.10
2017-05-31T18:56:12.102Z,66.10
2017-05-31T18:58:41.074Z,66.10
2017-05-31T19:01:09.661Z,66.60
2017-05-31T19:03:38.237Z,66.20
2017-05-31T19:06:06.903Z,65.90
2017-05-31T19:08:35.450Z,66.70
2017-05-31T19:11:04.008Z,66.20
2017-05-31T19:13:32.700Z,66.10
2017-05-31T19:16:01.284Z,66.10
2017-05-31T19:18:29.882Z,66.30
2017-05-31T19:20:58.592Z,65.80
2017-05-31T19:23:27.540Z,66.00
2017-05-31T19:25:56.087Z,66.00
2017-05-31T19:28:24.843Z,65.70
2017-05-31T19:30:53.410Z,65.80
2017-05-31T19:33:21.974Z,66.40
2017-05-31T19:35:50.629Z,66.50
2017-05-31T19:38:19.502Z,66.00
2017-05-31T19:40:48.025Z,66.10
2017-05-31T19:43:16.709Z,66.30
2017-05-31T19:45:45.241Z,66.40
2017-05-31T19:48:13.813Z,66.40
2017-05-31T19:50:42.651Z,66.40
2017-05-31T19:53:11.628Z,66.90
2017-05-31T19:55:40.542Z,67.10
2017-05-31T19:58:09.227Z,67.10
2017-05-31T20:00:38.569Z,66.70
2017-05-31T20:03:07.157Z,66.30
2017-05-31T20:05:35.875Z,66.80
2017-05-31T20:08:04.405Z,67.10
2017-05-31T20:10:33.958Z,66.90
2017-05-31T20:13:02.606Z,67.70
2017-05-31T20:15:31.161Z,67.00
2017-05-31T20:18:00.118Z,67.90
2017-05-31T20:20:29.580Z,67.90
2017-05-31T20:22:58.173Z,67.70
2017-05-31T20:25:26.751Z,67.50
2017-05-31T20:27:55.525Z,68.00
2017-05-31T20:30:24.490Z,67.70
2017-05-31T20:32:53.071Z,67.70
2017-05-31T20:35:21.821Z,67.90
2017-05-31T20:37:50.372Z,68.50
2017-05-31T20:40:19.323Z,68.30
2017-05-31T20:42:47.994Z,68.30
2017-05-31T20:45:22.101Z,68.00
2017-05-31T20:47:50.767Z,67.50
2017-05-31T20:50:19.312Z,68.00
2017-05-31T20:52:47.868Z,67.90
2017-05-31T20:55:16.548Z,67.70
2017-05-31T20:57:45.402Z,68.00
2017-05-31T21:00:13.938Z,68.30
2017-05-31T21:02:42.573Z,67.50
2017-05-31T21:05:11.022Z,68.20
2017-05-31T21:07:39.220Z,68.20
2017-05-31T21:10:07.015Z,68.10
2017-05-31T21:12:34.847Z,68.60
2017-05-31T21:15:02.512Z,68.40
2017-05-31T21:17:30.089Z,69.20
2017-05-31T21:19:57.687Z,68.90
2017-05-31T21:22:25.212Z,68.60
2017-05-31T21:24:52.780Z,68.50
2017-05-31T21:27:20.364Z,69.00
2017-05-31T21:29:47.939Z,69.10
2017-05-31T21:32:15.521Z,69.20
2017-05-31T21:34:43.497Z,68.50
2017-05-31T21:37:11.071Z,68.50
2017-05-31T21:39:38.636Z,69.20
2017-05-31T21:42:06.205Z,70.00
2017-05-31T21:44:33.747Z,70.90
2017-05-31T21:47:01.705Z,71.90
2017-05-31T21:49:29.640Z,70.30
2017-05-31T21:51:57.181Z,70.30
2017-05-31T21:54:24.747Z,70.50
2017-05-31T21:56:52.296Z,69.90
2017-05-31T21:59:19.840Z,70.60
2017-05-31T22:01:47.412Z,70.30
2017-05-31T22:04:14.967Z,70.70
2017-05-31T22:06:42.508Z,70.90
2017-05-31T22:09:10.491Z,73.20
2017-05-31T22:11:38.060Z,73.20
2017-05-31T22:14:05.605Z,72.90
2017-05-31T22:16:33.548Z,74.30
2017-05-31T22:19:01.214Z,74.30
2017-05-31T22:21:28.701Z,74.50
2017-05-31T22:23:56.253Z,74.80
2017-05-31T22:26:24.510Z,74.60
2017-05-31T22:28:52.072Z,74.60
2017-05-31T22:31:19.621Z,74.70
2017-05-31T22:33:47.235Z,75.70
2017-05-31T22:36:15.155Z,75.80
2017-05-31T22:38:42.699Z,75.20
2017-05-31T22:41:10.784Z,75.00
2017-05-31T22:43:38.772Z,75.40
2017-05-31T22:46:06.320Z,75.40
2017-05-31T22:48:34.906Z,75.50
2017-05-31T22:51:02.889Z,76.30
2017-05-31T22:53:30.785Z,76.90
2017-05-31T22:55:58.552Z,77.20
2017-05-31T22:58:26.096Z,77.50
2017-05-31T23:00:53.639Z,77.00
2017-05-31T23:03:21.226Z,77.00
2017-05-31T23:05:48.785Z,76.80
2017-05-31T23:08:16.723Z,75.30
2017-05-31T23:10:44.311Z,75.30
2017-05-31T23:13:12.249Z,76.80
2017-05-31T23:15:39.795Z,76.80
2017-05-31T23:18:07.363Z,77.20
2017-05-31T23:20:34.944Z,75.10
2017-05-31T23:23:02.481Z,76.80
2017-05-31T23:25:30.053Z,76.70
2017-05-31T23:27:57.602Z,75.30
2017-05-31T23:30:25.148Z,74.80
2017-05-31T23:32:52.717Z,74.60
2017-05-31T23:35:20.264Z,75.10
2017-05-31T23:37:47.803Z,74.60
2017-05-31T23:40:15.376Z,75.10
2017-05-31T23:42:42.924Z,76.70
2017-05-31T23:45:10.471Z,77.00
2017-05-31T23:47:38.441Z,77.50
2017-05-31T23:50:06.381Z,76.50
2017-05-31T23:52:33.921Z,76.50
2017-05-31T23:55:01.493Z,77.00
2017-05-31T23:57:29.036Z,76.70
2017-05-31T23:59:56.580Z,77.90
